createdAt,value
2023-03-08T00:00:52.134Z,4.30
2023-03-08T00:04:34.822Z,4.30
2023-03-08T00:08:18.109Z,4.30
2023-03-08T00:11:59.892Z,4.40
2023-03-08T00:15:41.629Z,4.30
2023-03-08T00:19:23.388Z,4.30
2023-03-08T00:23:05.164Z,4.40
2023-03-08T00:26:47.001Z,4.30
2023-03-08T00:30:28.975Z,4.40
2023-03-08T00:34:10.857Z,4.40
2023-03-08T00:37:52.576Z,4.40
2023-03-08T00:41:34.401Z,4.40
2023-03-08T00:45:16.363Z,4.40
2023-03-08T00:48:58.756Z,4.30
2023-03-08T00:52:40.525Z,4.30
2023-03-08T00:56:22.382Z,4.30
2023-03-08T01:00:08.270Z,4.20
2023-03-08T01:03:50.239Z,4.20
2023-03-08T01:07:31.955Z,4.20
2023-03-08T01:11:22.612Z,4.20
2023-03-08T01:15:05.371Z,4.20
2023-03-08T01:18:47.483Z,4.20
2023-03-08T01:22:29.208Z,4.20
2023-03-08T01:26:16.946Z,4.20
2023-03-08T01:29:58.720Z,4.20
2023-03-08T01:33:41.484Z,4.20
2023-03-08T01:37:23.271Z,4.20
2023-03-08T01:41:06.887Z,4.10
2023-03-08T01:45:01.280Z,4.20
2023-03-08T01:49:13.660Z,4.10
2023-03-08T01:52:58.470Z,4.00
2023-03-08T01:56:42.516Z,4.00
2023-03-08T02:00:26.868Z,4.00
2023-03-08T02:04:10.239Z,3.90
2023-03-08T02:07:52.001Z,3.90
2023-03-08T02:11:35.527Z,3.80
2023-03-08T02:15:20.265Z,3.80
2023-03-08T02:19:10.887Z,3.70
2023-03-08T02:22:53.280Z,3.70
2023-03-08T02:26:37.229Z,3.70
2023-03-08T02:30:27.286Z,3.60
2023-03-08T02:34:09.121Z,3.50
2023-03-08T02:37:50.996Z,3.50
2023-03-08T02:41:32.734Z,3.50
2023-03-08T02:45:14.734Z,3.40
2023-03-08T02:48:56.471Z,3.40
2023-03-08T02:52:38.250Z,3.40
2023-03-08T02:56:20.009Z,3.30
2023-03-08T03:00:01.856Z,3.30
2023-03-08T03:03:43.623Z,3.20
2023-03-08T03:07:25.374Z,3.20
2023-03-08T03:11:12.982Z,3.20
2023-03-08T03:14:54.710Z,3.10
2023-03-08T03:18:36.512Z,3.10
2023-03-08T03:22:18.249Z,3.10
2023-03-08T03:26:08.692Z,3.10
2023-03-08T03:29:50.498Z,3.10
2023-03-08T03:33:32.255Z,3.10
2023-03-08T03:37:13.976Z,3.10
2023-03-08T03:41:07.305Z,3.00
2023-03-08T03:44:49.043Z,3.00
2023-03-08T03:48:30.839Z,3.00
2023-03-08T03:52:12.647Z,3.00
2023-03-08T03:55:54.428Z,3.00
2023-03-08T03:59:36.211Z,2.90
2023-03-08T04:03:18.035Z,2.90
2023-03-08T04:06:59.840Z,2.90
2023-03-08T04:10:41.675Z,2.90
2023-03-08T04:14:23.454Z,2.90
2023-03-08T04:18:05.253Z,2.90
2023-03-08T04:21:46.999Z,2.90
2023-03-08T04:25:28.742Z,2.90
2023-03-08T04:29:10.495Z,2.90
2023-03-08T04:32:52.223Z,2.80
2023-03-08T04:36:34.200Z,2.80
2023-03-08T04:40:16.000Z,2.80
2023-03-08T04:43:57.998Z,2.80
2023-03-08T04:47:39.740Z,2.70
2023-03-08T04:51:26.647Z,2.70
2023-03-08T04:55:08.638Z,2.70
2023-03-08T04:58:50.566Z,2.80
2023-03-08T05:02:33.526Z,2.70
2023-03-08T05:06:15.574Z,2.70
2023-03-08T05:09:57.326Z,2.70
2023-03-08T05:13:39.635Z,2.70
2023-03-08T05:17:21.734Z,2.70
2023-03-08T05:21:11.392Z,2.80
2023-03-08T05:24:53.644Z,2.70
2023-03-08T05:28:41.779Z,2.70
2023-03-08T05:32:23.555Z,2.70
2023-03-08T05:36:06.606Z,2.70
2023-03-08T05:39:48.636Z,2.70
2023-03-08T05:43:30.782Z,2.70
2023-03-08T05:47:12.719Z,2.70
2023-03-08T05:50:54.714Z,2.70
2023-03-08T05:54:36.534Z,2.80
2023-03-08T05:58:18.359Z,2.70
2023-03-08T06:02:00.207Z,2.70
2023-03-08T06:05:41.970Z,2.80
2023-03-08T06:09:23.720Z,2.80
2023-03-08T06:13:08.466Z,2.80
2023-03-08T06:16:50.317Z,2.80
2023-03-08T06:20:32.866Z,2.70
2023-03-08T06:24:14.670Z,2.70
2023-03-08T06:27:56.516Z,2.70
2023-03-08T06:31:38.277Z,2.70
2023-03-08T06:35:20.053Z,2.70
2023-03-08T06:39:02.245Z,2.70
2023-03-08T06:42:44.000Z,2.70
2023-03-08T06:46:25.789Z,2.70
2023-03-08T06:50:08.155Z,2.70
2023-03-08T06:53:49.930Z,2.70
2023-03-08T06:57:31.923Z,2.70
2023-03-08T07:01:14.201Z,2.70
2023-03-08T07:04:55.972Z,2.70
2023-03-08T07:08:39.592Z,2.70
2023-03-08T07:12:21.407Z,2.70
2023-03-08T07:16:11.510Z,2.70
2023-03-08T07:19:53.289Z,2.70
2023-03-08T07:23:35.030Z,2.70
2023-03-08T07:27:16.768Z,2.70
2023-03-08T07:30:58.845Z,2.80
2023-03-08T07:34:40.683Z,2.80
2023-03-08T07:38:22.461Z,2.80
2023-03-08T07:42:04.602Z,2.90
2023-03-08T07:45:46.353Z,2.90
2023-03-08T07:49:28.284Z,2.90
2023-03-08T07:53:10.013Z,2.90
2023-03-08T07:56:52.974Z,2.90
2023-03-08T08:00:34.807Z,2.90
2023-03-08T08:04:16.804Z,2.90
2023-03-08T08:07:58.613Z,2.90
2023-03-08T08:11:41.086Z,2.90
2023-03-08T08:15:25.285Z,3.00
2023-03-08T08:19:08.564Z,3.00
2023-03-08T08:22:53.275Z,3.00
2023-03-08T08:26:35.165Z,3.00
2023-03-08T08:30:17.273Z,3.00
2023-03-08T08:34:00.050Z,3.00
2023-03-08T08:37:41.890Z,3.00
2023-03-08T08:41:24.458Z,3.00
2023-03-08T08:45:06.830Z,3.10
2023-03-08T08:48:48.576Z,3.00
2023-03-08T08:52:30.636Z,3.10
2023-03-08T08:56:27.265Z,3.20
2023-03-08T09:00:10.762Z,3.20
2023-03-08T09:03:53.235Z,3.30
2023-03-08T09:07:36.113Z,3.30
2023-03-08T09:11:19.295Z,3.40
2023-03-08T09:15:01.238Z,3.40
2023-03-08T09:18:42.990Z,3.40
2023-03-08T09:22:26.799Z,3.50
2023-03-08T09:26:08.705Z,3.60
2023-03-08T09:29:50.701Z,3.60
2023-03-08T09:33:32.543Z,3.60
2023-03-08T09:37:14.400Z,3.60
2023-03-08T09:41:21.759Z,3.70
2023-03-08T09:45:16.236Z,3.80
2023-03-08T09:49:01.125Z,3.80
2023-03-08T09:52:54.418Z,3.80
2023-03-08T09:57:01.957Z,3.80
2023-03-08T10:00:44.474Z,3.90
2023-03-08T10:04:35.699Z,3.90
2023-03-08T10:08:26.301Z,3.90
2023-03-08T10:12:32.109Z,3.90
2023-03-08T10:16:27.096Z,3.80
2023-03-08T10:20:27.243Z,3.80
2023-03-08T10:24:14.736Z,3.80
2023-03-08T10:27:57.016Z,3.80
2023-03-08T10:31:39.361Z,3.80
2023-03-08T10:35:38.116Z,3.80
2023-03-08T10:39:21.322Z,3.80
2023-03-08T10:43:06.313Z,3.80
2023-03-08T10:46:50.279Z,3.80
2023-03-08T10:50:36.990Z,3.80
2023-03-08T10:54:18.747Z,3.80
2023-03-08T10:58:01.995Z,3.90
2023-03-08T11:01:53.151Z,3.90
2023-03-08T11:05:34.876Z,4.00
2023-03-08T11:09:31.187Z,4.00
2023-03-08T11:13:47.103Z,4.00
2023-03-08T11:17:35.610Z,4.00
2023-03-08T11:21:46.570Z,4.00
2023-03-08T11:25:36.824Z,4.00
2023-03-08T11:29:41.922Z,4.10
2023-03-08T11:33:45.411Z,4.20
2023-03-08T11:37:48.792Z,4.30
2023-03-08T11:41:57.999Z,4.30
2023-03-08T11:46:04.485Z,4.50
2023-03-08T11:50:05.924Z,4.60
2023-03-08T11:53:53.739Z,4.60
2023-03-08T11:57:40.555Z,4.60
2023-03-08T12:01:46.113Z,4.60
2023-03-08T12:05:34.983Z,4.60
2023-03-08T12:09:24.808Z,4.70
2023-03-08T12:13:24.730Z,4.70
2023-03-08T12:17:20.856Z,4.70
2023-03-08T12:21:22.569Z,4.70
2023-03-08T12:25:13.164Z,4.70
2023-03-08T12:29:00.154Z,4.80
2023-03-08T12:32:43.009Z,4.80
2023-03-08T12:36:43.828Z,4.90
2023-03-08T12:40:52.716Z,4.90
2023-03-08T12:44:34.494Z,4.90
2023-03-08T12:48:28.564Z,5.00
2023-03-08T12:52:19.484Z,4.90
2023-03-08T12:56:21.693Z,4.90
2023-03-08T13:00:24.683Z,4.80
2023-03-08T13:04:39.960Z,4.70
2023-03-08T13:08:42.980Z,4.70
2023-03-08T13:12:50.369Z,4.60
2023-03-08T13:16:41.016Z,4.60
2023-03-08T13:20:48.536Z,4.60
2023-03-08T13:24:36.331Z,4.50
2023-03-08T13:28:20.963Z,4.50
2023-03-08T13:32:12.113Z,4.50
2023-03-08T13:36:01.866Z,4.50
2023-03-08T13:39:58.647Z,4.50
2023-03-08T13:43:40.397Z,4.50
2023-03-08T13:47:29.822Z,4.60
2023-03-08T13:51:17.884Z,4.50
2023-03-08T13:55:02.998Z,4.50
2023-03-08T13:58:50.535Z,4.50
2023-03-08T14:02:32.684Z,4.50
2023-03-08T14:06:24.869Z,4.50
2023-03-08T14:10:13.825Z,4.50
2023-03-08T14:13:57.314Z,4.50
2023-03-08T14:17:41.761Z,4.50
2023-03-08T14:21:29.506Z,4.50
2023-03-08T14:25:26.874Z,4.50
2023-03-08T14:29:27.628Z,4.40
2023-03-08T14:33:15.607Z,4.50
2023-03-08T14:37:01.395Z,4.50
2023-03-08T14:40:51.905Z,4.50
2023-03-08T14:44:33.698Z,4.50
2023-03-08T14:48:30.113Z,4.40
2023-03-08T14:52:21.599Z,4.50
2023-03-08T14:56:09.663Z,4.50
2023-03-08T14:59:52.255Z,4.50
2023-03-08T15:03:34.271Z,4.50
2023-03-08T15:07:22.323Z,4.50
2023-03-08T15:11:04.170Z,4.50
2023-03-08T15:14:46.026Z,4.60
2023-03-08T15:18:27.828Z,4.60
2023-03-08T15:22:13.865Z,4.60
2023-03-08T15:25:57.107Z,4.60
2023-03-08T15:29:38.938Z,4.60
2023-03-08T15:33:22.064Z,4.60
2023-03-08T15:37:04.026Z,4.60
2023-03-08T15:40:45.804Z,4.50
2023-03-08T15:44:27.602Z,4.60
2023-03-08T15:48:15.130Z,4.60
2023-03-08T15:51:56.964Z,4.50
2023-03-08T15:55:39.760Z,4.50
2023-03-08T15:59:21.516Z,4.50
2023-03-08T16:03:03.848Z,4.50
2023-03-08T16:06:45.576Z,4.50
2023-03-08T16:10:29.656Z,4.50
2023-03-08T16:14:17.588Z,4.50
2023-03-08T16:17:59.378Z,4.50
2023-03-08T16:21:41.117Z,4.50
2023-03-08T16:25:23.183Z,4.50
2023-03-08T16:29:04.963Z,4.50
2023-03-08T16:32:47.028Z,4.50
2023-03-08T16:36:29.018Z,4.50
2023-03-08T16:40:11.654Z,4.50
2023-03-08T16:43:55.657Z,4.50
2023-03-08T16:47:37.417Z,4.40
2023-03-08T16:51:21.404Z,4.40
2023-03-08T16:55:03.362Z,4.40
2023-03-08T16:58:45.173Z,4.40
2023-03-08T17:02:26.973Z,4.40
2023-03-08T17:06:11.765Z,4.30
2023-03-08T17:09:53.602Z,4.30
2023-03-08T17:13:35.401Z,4.30
2023-03-08T17:17:17.169Z,4.30
2023-03-08T17:20:58.874Z,4.30
2023-03-08T17:24:40.623Z,4.20
2023-03-08T17:28:22.415Z,4.30
2023-03-08T17:32:04.336Z,4.20
2023-03-08T17:35:46.261Z,4.20
2023-03-08T17:39:28.058Z,4.10
2023-03-08T17:43:09.800Z,4.20
2023-03-08T17:46:51.536Z,4.10
2023-03-08T17:50:36.486Z,4.20
2023-03-08T17:54:19.143Z,4.20
2023-03-08T17:58:00.948Z,4.10
2023-03-08T18:01:43.444Z,4.10
2023-03-08T18:05:25.222Z,4.10
2023-03-08T18:09:10.173Z,4.00
2023-03-08T18:12:51.911Z,4.10
2023-03-08T18:16:34.420Z,4.10
2023-03-08T18:20:18.144Z,4.00
2023-03-08T18:24:00.169Z,4.00
2023-03-08T18:27:41.953Z,4.00
2023-03-08T18:31:26.223Z,4.00
2023-03-08T18:35:08.594Z,4.00
2023-03-08T18:38:50.721Z,4.00
2023-03-08T18:42:33.662Z,3.90
2023-03-08T18:46:15.652Z,4.00
2023-03-08T18:49:57.418Z,3.90
2023-03-08T18:53:39.330Z,4.00
2023-03-08T18:57:21.110Z,4.00
2023-03-08T19:01:08.956Z,3.90
2023-03-08T19:04:51.063Z,4.00
2023-03-08T19:08:32.877Z,4.00
2023-03-08T19:12:15.003Z,3.90
2023-03-08T19:15:56.774Z,4.00
2023-03-08T19:19:38.528Z,4.00
2023-03-08T19:23:20.324Z,4.00
2023-03-08T19:27:03.916Z,4.00
2023-03-08T19:30:45.679Z,4.00
2023-03-08T19:34:29.021Z,4.10
2023-03-08T19:38:10.773Z,4.00
2023-03-08T19:41:57.771Z,4.00
2023-03-08T19:45:39.658Z,4.00
2023-03-08T19:49:24.026Z,4.00
2023-03-08T19:53:05.762Z,3.90
2023-03-08T19:56:47.796Z,4.00
2023-03-08T20:00:29.567Z,4.00
2023-03-08T20:04:12.408Z,4.00
2023-03-08T20:07:54.167Z,4.00
2023-03-08T20:11:36.045Z,4.00
2023-03-08T20:15:17.785Z,4.10
2023-03-08T20:18:59.680Z,4.10
2023-03-08T20:22:42.274Z,4.10
2023-03-08T20:26:26.346Z,4.00
2023-03-08T20:30:12.041Z,4.10
2023-03-08T20:33:54.441Z,4.10
2023-03-08T20:37:36.258Z,4.10
2023-03-08T20:41:20.369Z,4.00
2023-03-08T20:45:02.631Z,4.00
2023-03-08T20:48:45.599Z,4.00
2023-03-08T20:52:27.501Z,4.00
2023-03-08T20:56:14.686Z,4.00
2023-03-08T20:59:56.669Z,4.00
2023-03-08T21:03:38.766Z,4.00
2023-03-08T21:07:20.510Z,4.00
2023-03-08T21:11:02.252Z,4.00
2023-03-08T21:14:44.111Z,3.90
2023-03-08T21:18:25.825Z,4.00
2023-03-08T21:22:07.589Z,4.00
2023-03-08T21:25:51.294Z,4.00
2023-03-08T21:29:33.085Z,4.00
2023-03-08T21:33:14.815Z,4.00
2023-03-08T21:36:56.952Z,4.00
2023-03-08T21:40:41.098Z,4.00
2023-03-08T21:44:23.207Z,4.00
2023-03-08T21:48:05.299Z,3.90
2023-03-08T21:51:47.942Z,3.90
2023-03-08T21:55:29.747Z,3.90
2023-03-08T21:59:12.937Z,3.90
2023-03-08T22:02:54.968Z,3.90
2023-03-08T22:06:36.801Z,3.80
2023-03-08T22:10:20.198Z,3.80
2023-03-08T22:14:02.432Z,3.80
2023-03-08T22:17:44.325Z,3.80
2023-03-08T22:21:27.494Z,3.80
2023-03-08T22:25:09.849Z,3.80
2023-03-08T22:28:53.717Z,3.90
2023-03-08T22:32:36.226Z,3.80
2023-03-08T22:36:19.776Z,3.90
2023-03-08T22:40:01.856Z,3.90
2023-03-08T22:43:44.603Z,3.90
2023-03-08T22:47:26.382Z,3.90
2023-03-08T22:51:11.412Z,3.90
2023-03-08T22:54:53.493Z,3.90
2023-03-08T22:58:35.258Z,4.00
2023-03-08T23:02:16.977Z,3.90
2023-03-08T23:05:58.731Z,3.90
2023-03-08T23:09:40.855Z,3.90
2023-03-08T23:13:33.516Z,3.90
2023-03-08T23:17:16.142Z,3.90
2023-03-08T23:21:05.789Z,3.90
2023-03-08T23:24:47.633Z,3.80
2023-03-08T23:28:29.423Z,3.80
2023-03-08T23:32:11.516Z,3.80
2023-03-08T23:35:53.365Z,3.70
2023-03-08T23:39:35.243Z,3.70
2023-03-08T23:43:16.998Z,3.70
2023-03-08T23:46:58.710Z,3.70
2023-03-08T23:50:40.896Z,3.70
2023-03-08T23:54:22.673Z,3.70
2023-03-08T23:58:04.574Z,3.60
